FDX9295 CYQM-CYMX
Flight info
| Callsign | FDX9295 |
|---|---|
| Flight time | 1h 22m |
| Altitude | 36000 |
| Route | BEMEK DCT VIVIL DCT ROGSA DCT URVAS DCT DAXES DCT VIBNU |
| Aircraft | B748/H-SDE3FGHIM1M2RWXY/LB1 |
Departure
| Time | 2026-04-18 19:07 |
|---|---|
| Airport | Greater Moncton Roméo LeBlanc International Airport (CYQM) |
Arrival
| Time | 2026-04-18 20:30 |
|---|---|
| Airport | Montreal Mirabel International Airport (CYMX) |
| Time | Latitude | Longitude | Altitude | Speed | Heading |
|---|---|---|---|---|---|
| 2026-04-18 18:34 | 46.10476 | -64.67913 | 246 ft | 0 kts | 178° |
| 2026-04-18 18:46 | 46.10475 | -64.67913 | 246 ft | 0 kts | 178° |
| 2026-04-18 18:49 | 46.10474 | -64.67913 | 246 ft | 0 kts | 178° |
| 2026-04-18 18:52 | 46.10473 | -64.67913 | 246 ft | 0 kts | 178° |
| 2026-04-18 18:54 | 46.10476 | -64.67913 | 246 ft | 1 kts | 178° |
| 2026-04-18 18:54 | 46.10491 | -64.67914 | 246 ft | 3 kts | 178° |
| 2026-04-18 18:55 | 46.10510 | -64.67915 | 246 ft | 3 kts | 178° |
| 2026-04-18 18:55 | 46.10530 | -64.67918 | 246 ft | 3 kts | 161° |
| 2026-04-18 18:55 | 46.10548 | -64.67932 | 246 ft | 3 kts | 141° |
| 2026-04-18 18:55 | 46.10562 | -64.67954 | 246 ft | 3 kts | 121° |
| 2026-04-18 18:56 | 46.10570 | -64.67981 | 246 ft | 3 kts | 102° |
| 2026-04-18 18:56 | 46.10571 | -64.68008 | 246 ft | 0 kts | 88° |
| 2026-04-18 18:56 | 46.10571 | -64.68007 | 246 ft | 0 kts | 88° |
| 2026-04-18 18:57 | 46.10571 | -64.68000 | 246 ft | 2 kts | 88° |
| 2026-04-18 18:57 | 46.10572 | -64.67967 | 246 ft | 5 kts | 87° |
| 2026-04-18 18:57 | 46.10575 | -64.67906 | 246 ft | 8 kts | 87° |
| 2026-04-18 18:58 | 46.10578 | -64.67815 | 246 ft | 11 kts | 87° |
| 2026-04-18 18:58 | 46.10582 | -64.67696 | 246 ft | 13 kts | 87° |
| 2026-04-18 18:58 | 46.10587 | -64.67549 | 246 ft | 16 kts | 88° |
| 2026-04-18 18:58 | 46.10589 | -64.67398 | 246 ft | 12 kts | 87° |
| 2026-04-18 18:59 | 46.10592 | -64.67299 | 246 ft | 7 kts | 87° |
| 2026-04-18 18:59 | 46.10594 | -64.67250 | 246 ft | 2 kts | 88° |
| 2026-04-18 18:59 | 46.10594 | -64.67244 | 246 ft | 0 kts | 87° |
| 2026-04-18 18:59 | 46.10594 | -64.67241 | 246 ft | 1 kts | 87° |
| 2026-04-18 19:00 | 46.10594 | -64.67232 | 246 ft | 1 kts | 85° |
| 2026-04-18 19:00 | 46.10595 | -64.67227 | 246 ft | 1 kts | 85° |
| 2026-04-18 19:00 | 46.10596 | -64.67201 | 246 ft | 5 kts | 85° |
| 2026-04-18 19:00 | 46.10600 | -64.67129 | 246 ft | 10 kts | 85° |
| 2026-04-18 19:01 | 46.10604 | -64.67005 | 246 ft | 15 kts | 89° |
| 2026-04-18 19:01 | 46.10604 | -64.66853 | 246 ft | 14 kts | 90° |
| 2026-04-18 19:01 | 46.10605 | -64.66729 | 246 ft | 11 kts | 89° |
| 2026-04-18 19:01 | 46.10607 | -64.66620 | 246 ft | 10 kts | 88° |
| 2026-04-18 19:02 | 46.10609 | -64.66523 | 246 ft | 9 kts | 88° |
| 2026-04-18 19:02 | 46.10615 | -64.66435 | 246 ft | 8 kts | 73° |
| 2026-04-18 19:02 | 46.10644 | -64.66367 | 246 ft | 7 kts | 47° |
| 2026-04-18 19:02 | 46.10682 | -64.66342 | 246 ft | 4 kts | 12° |
| 2026-04-18 19:03 | 46.10684 | -64.66341 | 246 ft | 0 kts | 12° |
| 2026-04-18 19:04 | 46.10685 | -64.66341 | 246 ft | 1 kts | 12° |
| 2026-04-18 19:04 | 46.10706 | -64.66334 | 246 ft | 6 kts | 10° |
| 2026-04-18 19:04 | 46.10758 | -64.66351 | 246 ft | 9 kts | 319° |
| 2026-04-18 19:05 | 46.10770 | -64.66399 | 246 ft | 0 kts | 274° |
| 2026-04-18 19:05 | 46.10770 | -64.66400 | 246 ft | 0 kts | 274° |
| 2026-04-18 19:06 | 46.10759 | -64.66802 | 246 ft | 81 kts | 268° |
| 2026-04-18 19:06 | 46.10734 | -64.67964 | 247 ft | 149 kts | 267° |
| 2026-04-18 19:07 | 46.10912 | -64.69625 | 510 ft | 189 kts | 288° |
| 2026-04-18 19:07 | 46.11567 | -64.71459 | 953 ft | 220 kts | 292° |
| 2026-04-18 19:07 | 46.11776 | -64.73607 | 1268 ft | 218 kts | 266° |
| 2026-04-18 19:07 | 46.11626 | -64.75809 | 1649 ft | 217 kts | 263° |
| 2026-04-18 19:08 | 46.11493 | -64.77925 | 1999 ft | 214 kts | 262° |
| 2026-04-18 19:08 | 46.11435 | -64.80072 | 2350 ft | 215 kts | 263° |
| 2026-04-18 19:08 | 46.11397 | -64.82232 | 2697 ft | 215 kts | 263° |
| 2026-04-18 19:08 | 46.11379 | -64.84386 | 3039 ft | 215 kts | 263° |
| 2026-04-18 19:09 | 46.11375 | -64.86539 | 3385 ft | 214 kts | 264° |
| 2026-04-18 19:09 | 46.11370 | -64.88675 | 3716 ft | 212 kts | 263° |
| 2026-04-18 19:09 | 46.11372 | -64.90783 | 4046 ft | 212 kts | 266° |
| 2026-04-18 19:09 | 46.11481 | -64.92903 | 4377 ft | 212 kts | 268° |
| 2026-04-18 19:10 | 46.11608 | -64.95051 | 4710 ft | 212 kts | 269° |
| 2026-04-18 19:10 | 46.11733 | -64.97173 | 4944 ft | 213 kts | 269° |
| 2026-04-18 19:10 | 46.11856 | -64.99289 | 4994 ft | 211 kts | 269° |
| 2026-04-18 19:10 | 46.11975 | -65.01361 | 4995 ft | 209 kts | 269° |
| 2026-04-18 19:11 | 46.12091 | -65.03446 | 4993 ft | 209 kts | 268° |
| 2026-04-18 19:11 | 46.12207 | -65.05541 | 5006 ft | 210 kts | 269° |
| 2026-04-18 19:11 | 46.12319 | -65.07625 | 5309 ft | 210 kts | 269° |
| 2026-04-18 19:11 | 46.12427 | -65.09759 | 5739 ft | 217 kts | 269° |
| 2026-04-18 19:12 | 46.12529 | -65.11926 | 6147 ft | 217 kts | 269° |
| 2026-04-18 19:12 | 46.12626 | -65.14106 | 6549 ft | 218 kts | 268° |
| 2026-04-18 19:12 | 46.12722 | -65.16303 | 6959 ft | 220 kts | 269° |
| 2026-04-18 19:12 | 46.12814 | -65.18524 | 7367 ft | 223 kts | 268° |
| 2026-04-18 19:13 | 46.12905 | -65.20766 | 7796 ft | 224 kts | 269° |
| 2026-04-18 19:13 | 46.12988 | -65.22982 | 8190 ft | 226 kts | 269° |
| 2026-04-18 19:13 | 46.13066 | -65.25259 | 8602 ft | 229 kts | 269° |
| 2026-04-18 19:13 | 46.13117 | -65.27559 | 9008 ft | 230 kts | 266° |
| 2026-04-18 19:14 | 46.13050 | -65.29875 | 9425 ft | 231 kts | 263° |
| 2026-04-18 19:14 | 46.12963 | -65.32176 | 9810 ft | 229 kts | 263° |
| 2026-04-18 19:14 | 46.12877 | -65.34462 | 10196 ft | 227 kts | 263° |
| 2026-04-18 19:14 | 46.12788 | -65.36731 | 10570 ft | 226 kts | 262° |
| 2026-04-18 19:15 | 46.12702 | -65.38983 | 10940 ft | 224 kts | 262° |
| 2026-04-18 19:15 | 46.12618 | -65.41217 | 11305 ft | 223 kts | 262° |
| 2026-04-18 19:15 | 46.12533 | -65.43438 | 11669 ft | 221 kts | 261° |
| 2026-04-18 19:15 | 46.12448 | -65.45642 | 12021 ft | 219 kts | 261° |
| 2026-04-18 19:16 | 46.12364 | -65.47828 | 12374 ft | 218 kts | 261° |
| 2026-04-18 19:16 | 46.12281 | -65.49979 | 12718 ft | 218 kts | 260° |
| 2026-04-18 19:16 | 46.12196 | -65.52158 | 13066 ft | 218 kts | 259° |
| 2026-04-18 19:16 | 46.12110 | -65.54338 | 13411 ft | 217 kts | 259° |
| 2026-04-18 19:17 | 46.12024 | -65.56515 | 13757 ft | 217 kts | 259° |
| 2026-04-18 19:17 | 46.11936 | -65.58701 | 14099 ft | 222 kts | 259° |
| 2026-04-18 19:17 | 46.11838 | -65.61010 | 14458 ft | 239 kts | 259° |
| 2026-04-18 19:17 | 46.11767 | -65.62638 | 14691 ft | 251 kts | 259° |
| 2026-04-18 19:18 | 46.11629 | -65.65739 | 15122 ft | 272 kts | 259° |
| 2026-04-18 19:18 | 46.11513 | -65.68514 | 15494 ft | 282 kts | 259° |
| 2026-04-18 19:18 | 46.11397 | -65.71362 | 15843 ft | 285 kts | 259° |
| 2026-04-18 19:18 | 46.11281 | -65.74175 | 16197 ft | 285 kts | 258° |
| 2026-04-18 19:19 | 46.11165 | -65.77033 | 16551 ft | 286 kts | 258° |
| 2026-04-18 19:19 | 46.11050 | -65.79897 | 16900 ft | 286 kts | 258° |
| 2026-04-18 19:19 | 46.10934 | -65.82769 | 17255 ft | 287 kts | 257° |
| 2026-04-18 19:19 | 46.10817 | -65.85640 | 17600 ft | 287 kts | 257° |
| 2026-04-18 19:20 | 46.10699 | -65.88512 | 17941 ft | 288 kts | 257° |
| 2026-04-18 19:20 | 46.10578 | -65.91391 | 18298 ft | 289 kts | 257° |
| 2026-04-18 19:20 | 46.10450 | -65.94275 | 18637 ft | 289 kts | 257° |
| 2026-04-18 19:20 | 46.10327 | -65.97168 | 18979 ft | 289 kts | 257° |
| 2026-04-18 19:21 | 46.10206 | -66.00071 | 19314 ft | 290 kts | 257° |
| 2026-04-18 19:21 | 46.10081 | -66.02966 | 19654 ft | 291 kts | 257° |
| 2026-04-18 19:21 | 46.09955 | -66.05869 | 19997 ft | 292 kts | 258° |
| 2026-04-18 19:21 | 46.09831 | -66.08791 | 20338 ft | 292 kts | 258° |
| 2026-04-18 19:22 | 46.09706 | -66.11717 | 20671 ft | 292 kts | 258° |
| 2026-04-18 19:22 | 46.09579 | -66.14649 | 20997 ft | 293 kts | 258° |
| 2026-04-18 19:22 | 46.09454 | -66.17592 | 21334 ft | 294 kts | 258° |
| 2026-04-18 19:22 | 46.09330 | -66.20499 | 21665 ft | 296 kts | 258° |
| 2026-04-18 19:23 | 46.09204 | -66.23491 | 22003 ft | 296 kts | 258° |
| 2026-04-18 19:23 | 46.09081 | -66.26423 | 22329 ft | 297 kts | 259° |
| 2026-04-18 19:23 | 46.08957 | -66.29388 | 22661 ft | 298 kts | 259° |
| 2026-04-18 19:23 | 46.08833 | -66.32377 | 22994 ft | 299 kts | 259° |
| 2026-04-18 19:24 | 46.08708 | -66.35381 | 23316 ft | 300 kts | 259° |
| 2026-04-18 19:24 | 46.08586 | -66.38380 | 23610 ft | 301 kts | 259° |
| 2026-04-18 19:24 | 46.08467 | -66.41402 | 23905 ft | 302 kts | 260° |
| 2026-04-18 19:24 | 46.08353 | -66.44442 | 24201 ft | 304 kts | 260° |
| 2026-04-18 19:25 | 46.08311 | -66.47491 | 24496 ft | 307 kts | 263° |
| 2026-04-18 19:25 | 46.08403 | -66.50550 | 24788 ft | 310 kts | 264° |
| 2026-04-18 19:25 | 46.08531 | -66.53670 | 25087 ft | 313 kts | 265° |
| 2026-04-18 19:25 | 46.08659 | -66.56797 | 25384 ft | 315 kts | 265° |
| 2026-04-18 19:26 | 46.08773 | -66.59662 | 25654 ft | 316 kts | 265° |
| 2026-04-18 19:26 | 46.08896 | -66.62841 | 25953 ft | 317 kts | 265° |
| 2026-04-18 19:26 | 46.09017 | -66.66018 | 26245 ft | 318 kts | 265° |
| 2026-04-18 19:26 | 46.09136 | -66.69213 | 26542 ft | 320 kts | 265° |
| 2026-04-18 19:27 | 46.09246 | -66.72208 | 26820 ft | 321 kts | 265° |
| 2026-04-18 19:27 | 46.09360 | -66.75432 | 27110 ft | 322 kts | 265° |
| 2026-04-18 19:27 | 46.09476 | -66.78664 | 27394 ft | 323 kts | 265° |
| 2026-04-18 19:27 | 46.09590 | -66.81895 | 27692 ft | 325 kts | 265° |
| 2026-04-18 19:28 | 46.09706 | -66.85151 | 27986 ft | 327 kts | 265° |
| 2026-04-18 19:28 | 46.09816 | -66.88441 | 28289 ft | 328 kts | 265° |
| 2026-04-18 19:28 | 46.09924 | -66.91726 | 28578 ft | 329 kts | 265° |
| 2026-04-18 19:28 | 46.10028 | -66.95033 | 28880 ft | 331 kts | 265° |
| 2026-04-18 19:29 | 46.10135 | -66.98345 | 29177 ft | 333 kts | 265° |
| 2026-04-18 19:29 | 46.10244 | -67.01695 | 29472 ft | 334 kts | 265° |
| 2026-04-18 19:29 | 46.10352 | -67.05050 | 29769 ft | 335 kts | 265° |
| 2026-04-18 19:29 | 46.10461 | -67.08411 | 30058 ft | 337 kts | 265° |
| 2026-04-18 19:30 | 46.10569 | -67.11795 | 30354 ft | 339 kts | 265° |
| 2026-04-18 19:30 | 46.10675 | -67.15216 | 30652 ft | 342 kts | 265° |
| 2026-04-18 19:30 | 46.10779 | -67.18620 | 30948 ft | 346 kts | 265° |
| 2026-04-18 19:30 | 46.10885 | -67.22106 | 31248 ft | 349 kts | 265° |
| 2026-04-18 19:31 | 46.10992 | -67.25617 | 31549 ft | 353 kts | 265° |
| 2026-04-18 19:31 | 46.11099 | -67.29167 | 31852 ft | 356 kts | 265° |
| 2026-04-18 19:31 | 46.11206 | -67.32749 | 32157 ft | 359 kts | 266° |
| 2026-04-18 19:31 | 46.11312 | -67.36364 | 32461 ft | 362 kts | 266° |
| 2026-04-18 19:32 | 46.11413 | -67.39808 | 32751 ft | 365 kts | 266° |
| 2026-04-18 19:32 | 46.11521 | -67.43477 | 33057 ft | 366 kts | 266° |
| 2026-04-18 19:32 | 46.11628 | -67.47155 | 33363 ft | 367 kts | 266° |
| 2026-04-18 19:32 | 46.11734 | -67.50828 | 33668 ft | 367 kts | 266° |
| 2026-04-18 19:33 | 46.11840 | -67.54513 | 33976 ft | 367 kts | 266° |
| 2026-04-18 19:33 | 46.11943 | -67.58178 | 34280 ft | 367 kts | 266° |
| 2026-04-18 19:33 | 46.12043 | -67.61866 | 34588 ft | 367 kts | 266° |
| 2026-04-18 19:33 | 46.12143 | -67.65550 | 34895 ft | 368 kts | 266° |
| 2026-04-18 19:34 | 46.12240 | -67.69227 | 35200 ft | 367 kts | 266° |
| 2026-04-18 19:34 | 46.12336 | -67.72898 | 35507 ft | 367 kts | 266° |
| 2026-04-18 19:34 | 46.12399 | -67.75333 | 35660 ft | 368 kts | 266° |
| 2026-04-18 19:34 | 46.12493 | -67.79016 | 35709 ft | 367 kts | 267° |
| 2026-04-18 19:35 | 46.12678 | -67.86358 | 35717 ft | 365 kts | 266° |
| 2026-04-18 19:35 | 46.12858 | -67.93687 | 35719 ft | 365 kts | 266° |
| 2026-04-18 19:36 | 46.13029 | -68.00693 | 35719 ft | 365 kts | 266° |
| 2026-04-18 19:36 | 46.13200 | -68.08012 | 35717 ft | 365 kts | 266° |
| 2026-04-18 19:37 | 46.13366 | -68.15337 | 35716 ft | 365 kts | 266° |
| 2026-04-18 19:37 | 46.13526 | -68.22659 | 35717 ft | 366 kts | 266° |
| 2026-04-18 19:38 | 46.13682 | -68.29998 | 35717 ft | 366 kts | 266° |
| 2026-04-18 19:38 | 46.13833 | -68.37302 | 35724 ft | 367 kts | 266° |
| 2026-04-18 19:39 | 46.13980 | -68.44665 | 35728 ft | 368 kts | 266° |
| 2026-04-18 19:39 | 46.14123 | -68.52043 | 35731 ft | 369 kts | 266° |
| 2026-04-18 19:40 | 46.14263 | -68.59441 | 35733 ft | 370 kts | 266° |
| 2026-04-18 19:40 | 46.14398 | -68.66872 | 35736 ft | 371 kts | 266° |
| 2026-04-18 19:41 | 46.14529 | -68.74326 | 35740 ft | 372 kts | 266° |
| 2026-04-18 19:41 | 46.14653 | -68.81791 | 35743 ft | 373 kts | 266° |
| 2026-04-18 19:42 | 46.14774 | -68.89248 | 35744 ft | 374 kts | 266° |
| 2026-04-18 19:42 | 46.14891 | -68.96753 | 35744 ft | 374 kts | 266° |
| 2026-04-18 19:43 | 46.15003 | -69.04274 | 35745 ft | 375 kts | 266° |
| 2026-04-18 19:43 | 46.15110 | -69.11795 | 35745 ft | 376 kts | 266° |
| 2026-04-18 19:44 | 46.15213 | -69.19337 | 35744 ft | 376 kts | 266° |
| 2026-04-18 19:45 | 46.15358 | -69.30680 | 35744 ft | 377 kts | 266° |
| 2026-04-18 19:45 | 46.15449 | -69.38249 | 35744 ft | 378 kts | 266° |
| 2026-04-18 19:46 | 46.15533 | -69.45613 | 35744 ft | 378 kts | 266° |
| 2026-04-18 19:46 | 46.15614 | -69.53188 | 35744 ft | 378 kts | 266° |
| 2026-04-18 19:47 | 46.15689 | -69.60751 | 35739 ft | 378 kts | 266° |
| 2026-04-18 19:47 | 46.15760 | -69.68321 | 35739 ft | 377 kts | 265° |
| 2026-04-18 19:48 | 46.15825 | -69.75902 | 35745 ft | 377 kts | 265° |
| 2026-04-18 19:48 | 46.15886 | -69.83481 | 35752 ft | 377 kts | 265° |
| 2026-04-18 19:49 | 46.15941 | -69.91005 | 35760 ft | 377 kts | 265° |
| 2026-04-18 19:49 | 46.15990 | -69.98515 | 35765 ft | 377 kts | 265° |
| 2026-04-18 19:50 | 46.16036 | -70.06129 | 35769 ft | 377 kts | 265° |
| 2026-04-18 19:50 | 46.16076 | -70.13714 | 35768 ft | 377 kts | 265° |
| 2026-04-18 19:51 | 46.16111 | -70.21297 | 35772 ft | 378 kts | 265° |
| 2026-04-18 19:51 | 46.16141 | -70.28889 | 35716 ft | 378 kts | 265° |
| 2026-04-18 19:51 | 46.16154 | -70.32278 | 35522 ft | 375 kts | 265° |
| 2026-04-18 19:52 | 46.16168 | -70.36027 | 35281 ft | 369 kts | 265° |
| 2026-04-18 19:52 | 46.16179 | -70.39704 | 35052 ft | 363 kts | 265° |
| 2026-04-18 19:52 | 46.16190 | -70.43290 | 34856 ft | 356 kts | 265° |
| 2026-04-18 19:52 | 46.16198 | -70.46843 | 34674 ft | 349 kts | 265° |
| 2026-04-18 19:53 | 46.16205 | -70.50260 | 34498 ft | 342 kts | 265° |
| 2026-04-18 19:53 | 46.16214 | -70.53667 | 34318 ft | 336 kts | 265° |
| 2026-04-18 19:53 | 46.16227 | -70.60314 | 33963 ft | 328 kts | 265° |
| 2026-04-18 19:54 | 46.16232 | -70.63600 | 33789 ft | 328 kts | 265° |
| 2026-04-18 19:54 | 46.16234 | -70.66905 | 33619 ft | 334 kts | 265° |
| 2026-04-18 19:54 | 46.16235 | -70.70291 | 33444 ft | 338 kts | 265° |
| 2026-04-18 19:54 | 46.16236 | -70.73693 | 33269 ft | 339 kts | 265° |
| 2026-04-18 19:55 | 46.16238 | -70.77091 | 33092 ft | 339 kts | 265° |
| 2026-04-18 19:55 | 46.16241 | -70.80480 | 32910 ft | 337 kts | 265° |
| 2026-04-18 19:55 | 46.16242 | -70.83859 | 32733 ft | 337 kts | 265° |
| 2026-04-18 19:55 | 46.16242 | -70.87231 | 32557 ft | 335 kts | 265° |
| 2026-04-18 19:56 | 46.16213 | -70.90592 | 32377 ft | 333 kts | 263° |
| 2026-04-18 19:56 | 46.16072 | -70.93918 | 32202 ft | 332 kts | 262° |
| 2026-04-18 19:56 | 46.15899 | -70.97231 | 32022 ft | 330 kts | 262° |
| 2026-04-18 19:56 | 46.15737 | -71.00491 | 31848 ft | 329 kts | 262° |
| 2026-04-18 19:57 | 46.15576 | -71.03799 | 31671 ft | 327 kts | 262° |
| 2026-04-18 19:57 | 46.15419 | -71.07065 | 31495 ft | 326 kts | 262° |
| 2026-04-18 19:57 | 46.15265 | -71.10320 | 31319 ft | 324 kts | 262° |
| 2026-04-18 19:57 | 46.15112 | -71.13561 | 31143 ft | 323 kts | 262° |
| 2026-04-18 19:58 | 46.14962 | -71.16749 | 30970 ft | 322 kts | 262° |
| 2026-04-18 19:58 | 46.14811 | -71.19974 | 30794 ft | 321 kts | 262° |
| 2026-04-18 19:58 | 46.14660 | -71.23183 | 30619 ft | 320 kts | 262° |
| 2026-04-18 19:58 | 46.14508 | -71.26369 | 30444 ft | 318 kts | 262° |
| 2026-04-18 19:59 | 46.14357 | -71.29551 | 30281 ft | 316 kts | 262° |
| 2026-04-18 19:59 | 46.14207 | -71.32709 | 30122 ft | 315 kts | 262° |
| 2026-04-18 19:59 | 46.14057 | -71.35854 | 29965 ft | 314 kts | 262° |
| 2026-04-18 19:59 | 46.13906 | -71.38994 | 29810 ft | 313 kts | 262° |
| 2026-04-18 20:00 | 46.13755 | -71.42111 | 29655 ft | 312 kts | 262° |
| 2026-04-18 20:00 | 46.13604 | -71.45225 | 29500 ft | 311 kts | 262° |
| 2026-04-18 20:00 | 46.13451 | -71.48330 | 29346 ft | 310 kts | 262° |
| 2026-04-18 20:00 | 46.13299 | -71.51426 | 29190 ft | 308 kts | 262° |
| 2026-04-18 20:01 | 46.13147 | -71.54507 | 29046 ft | 307 kts | 262° |
| 2026-04-18 20:01 | 46.12996 | -71.57568 | 28888 ft | 306 kts | 262° |
| 2026-04-18 20:01 | 46.12846 | -71.60585 | 28735 ft | 305 kts | 262° |
| 2026-04-18 20:01 | 46.12693 | -71.63636 | 28581 ft | 304 kts | 262° |
| 2026-04-18 20:02 | 46.12540 | -71.66667 | 28427 ft | 303 kts | 262° |
| 2026-04-18 20:02 | 46.12387 | -71.69700 | 28273 ft | 303 kts | 262° |
| 2026-04-18 20:02 | 46.12234 | -71.72718 | 28119 ft | 301 kts | 262° |
| 2026-04-18 20:02 | 46.12080 | -71.75719 | 27964 ft | 300 kts | 262° |
| 2026-04-18 20:03 | 46.11925 | -71.78719 | 27811 ft | 299 kts | 263° |
| 2026-04-18 20:03 | 46.11769 | -71.81709 | 27656 ft | 298 kts | 263° |
| 2026-04-18 20:03 | 46.11614 | -71.84680 | 27502 ft | 297 kts | 263° |
| 2026-04-18 20:03 | 46.11460 | -71.87641 | 27349 ft | 296 kts | 262° |
| 2026-04-18 20:04 | 46.11306 | -71.90594 | 27195 ft | 295 kts | 262° |
| 2026-04-18 20:04 | 46.11150 | -71.93542 | 27041 ft | 294 kts | 263° |
| 2026-04-18 20:04 | 46.10995 | -71.96473 | 26888 ft | 293 kts | 263° |
| 2026-04-18 20:04 | 46.10839 | -71.99398 | 26734 ft | 292 kts | 263° |
| 2026-04-18 20:05 | 46.10685 | -72.02273 | 26583 ft | 291 kts | 263° |
| 2026-04-18 20:05 | 46.10529 | -72.05181 | 26428 ft | 290 kts | 263° |
| 2026-04-18 20:05 | 46.10371 | -72.08083 | 26275 ft | 289 kts | 263° |
| 2026-04-18 20:05 | 46.10215 | -72.10963 | 26122 ft | 288 kts | 263° |
| 2026-04-18 20:06 | 46.10057 | -72.13851 | 25967 ft | 288 kts | 263° |
| 2026-04-18 20:06 | 46.09901 | -72.16717 | 25814 ft | 287 kts | 263° |
| 2026-04-18 20:06 | 46.09796 | -72.18624 | 25711 ft | 287 kts | 263° |
| 2026-04-18 20:06 | 46.09712 | -72.20130 | 25631 ft | 287 kts | 263° |
| 2026-04-18 20:07 | 46.09555 | -72.22958 | 25479 ft | 286 kts | 263° |
| 2026-04-18 20:07 | 46.09401 | -72.25719 | 25329 ft | 285 kts | 263° |
| 2026-04-18 20:07 | 46.09244 | -72.28535 | 25176 ft | 285 kts | 263° |
| 2026-04-18 20:07 | 46.09084 | -72.31376 | 25022 ft | 284 kts | 263° |
| 2026-04-18 20:08 | 46.08921 | -72.34249 | 24865 ft | 284 kts | 263° |
| 2026-04-18 20:08 | 46.08762 | -72.37046 | 24715 ft | 285 kts | 263° |
| 2026-04-18 20:08 | 46.08600 | -72.39893 | 24558 ft | 284 kts | 263° |
| 2026-04-18 20:08 | 46.08439 | -72.42722 | 24403 ft | 282 kts | 263° |
| 2026-04-18 20:09 | 46.08278 | -72.45537 | 24247 ft | 282 kts | 264° |
| 2026-04-18 20:09 | 46.08117 | -72.48307 | 24093 ft | 282 kts | 264° |
| 2026-04-18 20:09 | 46.07954 | -72.51133 | 23936 ft | 282 kts | 264° |
| 2026-04-18 20:09 | 46.07791 | -72.53941 | 23781 ft | 281 kts | 264° |
| 2026-04-18 20:10 | 46.07626 | -72.56737 | 23623 ft | 281 kts | 263° |
| 2026-04-18 20:10 | 46.07192 | -72.59477 | 23460 ft | 281 kts | 252° |
| 2026-04-18 20:10 | 46.06384 | -72.62049 | 23309 ft | 282 kts | 247° |
| 2026-04-18 20:10 | 46.05500 | -72.64560 | 23151 ft | 282 kts | 246° |
| 2026-04-18 20:11 | 46.04599 | -72.67061 | 22994 ft | 282 kts | 246° |
| 2026-04-18 20:11 | 46.03685 | -72.69565 | 22834 ft | 282 kts | 246° |
| 2026-04-18 20:11 | 46.02764 | -72.72054 | 22676 ft | 282 kts | 246° |
| 2026-04-18 20:11 | 46.01858 | -72.74478 | 22515 ft | 282 kts | 246° |
| 2026-04-18 20:12 | 46.00926 | -72.76951 | 22299 ft | 280 kts | 246° |
| 2026-04-18 20:12 | 45.99999 | -72.79399 | 22057 ft | 275 kts | 246° |
| 2026-04-18 20:12 | 45.99101 | -72.81752 | 21818 ft | 269 kts | 245° |
| 2026-04-18 20:12 | 45.98205 | -72.84089 | 21518 ft | 265 kts | 246° |
| 2026-04-18 20:13 | 45.97318 | -72.86397 | 21169 ft | 263 kts | 246° |
| 2026-04-18 20:13 | 45.96435 | -72.88689 | 20828 ft | 260 kts | 246° |
| 2026-04-18 20:13 | 45.95564 | -72.90944 | 20475 ft | 257 kts | 246° |
| 2026-04-18 20:13 | 45.94696 | -72.93184 | 20111 ft | 255 kts | 246° |
| 2026-04-18 20:14 | 45.93919 | -72.95187 | 19758 ft | 254 kts | 246° |
| 2026-04-18 20:14 | 45.93061 | -72.97396 | 19366 ft | 253 kts | 246° |
| 2026-04-18 20:14 | 45.92206 | -72.99590 | 18975 ft | 252 kts | 246° |
| 2026-04-18 20:14 | 45.91344 | -73.01798 | 18578 ft | 252 kts | 246° |
| 2026-04-18 20:15 | 45.90779 | -73.03245 | 18317 ft | 251 kts | 246° |
| 2026-04-18 20:15 | 45.89976 | -73.05298 | 17945 ft | 251 kts | 246° |
| 2026-04-18 20:15 | 45.89061 | -73.07639 | 17518 ft | 250 kts | 246° |
| 2026-04-18 20:15 | 45.88599 | -73.08817 | 17302 ft | 250 kts | 246° |
| 2026-04-18 20:16 | 45.87602 | -73.11516 | 16806 ft | 247 kts | 252° |
| 2026-04-18 20:16 | 45.87194 | -73.13845 | 16423 ft | 243 kts | 264° |
| 2026-04-18 20:16 | 45.87108 | -73.16267 | 16026 ft | 243 kts | 270° |
| 2026-04-18 20:16 | 45.87152 | -73.18399 | 15673 ft | 243 kts | 272° |
| 2026-04-18 20:17 | 45.87255 | -73.20830 | 15269 ft | 244 kts | 274° |
| 2026-04-18 20:17 | 45.87377 | -73.23257 | 14859 ft | 244 kts | 274° |
| 2026-04-18 20:17 | 45.87504 | -73.25684 | 14451 ft | 244 kts | 274° |
| 2026-04-18 20:17 | 45.87588 | -73.27301 | 14178 ft | 245 kts | 275° |
| 2026-04-18 20:18 | 45.87757 | -73.30559 | 13625 ft | 245 kts | 275° |
| 2026-04-18 20:18 | 45.87841 | -73.32170 | 13394 ft | 241 kts | 275° |
| 2026-04-18 20:18 | 45.87965 | -73.34556 | 12985 ft | 239 kts | 275° |
| 2026-04-18 20:18 | 45.88086 | -73.36924 | 12567 ft | 237 kts | 275° |
| 2026-04-18 20:19 | 45.88199 | -73.39145 | 12168 ft | 236 kts | 275° |
| 2026-04-18 20:19 | 45.88310 | -73.41337 | 11767 ft | 235 kts | 276° |
| 2026-04-18 20:19 | 45.88424 | -73.43664 | 11329 ft | 234 kts | 276° |
| 2026-04-18 20:19 | 45.88541 | -73.45983 | 10907 ft | 233 kts | 276° |
| 2026-04-18 20:20 | 45.88658 | -73.48310 | 10471 ft | 233 kts | 277° |
| 2026-04-18 20:20 | 45.88774 | -73.50627 | 10059 ft | 230 kts | 277° |
| 2026-04-18 20:20 | 45.88880 | -73.52876 | 9664 ft | 225 kts | 276° |
| 2026-04-18 20:20 | 45.88880 | -73.55102 | 9229 ft | 223 kts | 273° |
| 2026-04-18 20:21 | 45.88831 | -73.57345 | 8782 ft | 221 kts | 272° |
| 2026-04-18 20:21 | 45.88790 | -73.59508 | 8352 ft | 219 kts | 273° |
| 2026-04-18 20:21 | 45.88753 | -73.61715 | 7907 ft | 217 kts | 273° |
| 2026-04-18 20:21 | 45.88720 | -73.63864 | 7484 ft | 215 kts | 273° |
| 2026-04-18 20:22 | 45.88685 | -73.65993 | 7045 ft | 214 kts | 274° |
| 2026-04-18 20:22 | 45.88654 | -73.68145 | 6616 ft | 212 kts | 274° |
| 2026-04-18 20:22 | 45.88622 | -73.70255 | 6182 ft | 210 kts | 274° |
| 2026-04-18 20:22 | 45.88591 | -73.72312 | 5762 ft | 208 kts | 274° |
| 2026-04-18 20:23 | 45.88560 | -73.74373 | 5327 ft | 206 kts | 274° |
| 2026-04-18 20:23 | 45.88531 | -73.76422 | 4909 ft | 205 kts | 273° |
| 2026-04-18 20:23 | 45.88391 | -73.78459 | 4452 ft | 209 kts | 262° |
| 2026-04-18 20:23 | 45.87622 | -73.80238 | 4024 ft | 217 kts | 233° |
| 2026-04-18 20:24 | 45.86270 | -73.81235 | 3568 ft | 225 kts | 204° |
| 2026-04-18 20:24 | 45.84711 | -73.81238 | 3254 ft | 219 kts | 184° |
| 2026-04-18 20:24 | 45.83291 | -73.81336 | 3141 ft | 189 kts | 200° |
| 2026-04-18 20:24 | 45.82132 | -73.81944 | 3101 ft | 168 kts | 215° |
| 2026-04-18 20:25 | 45.81180 | -73.82755 | 3066 ft | 151 kts | 223° |
| 2026-04-18 20:25 | 45.80383 | -73.83594 | 3042 ft | 136 kts | 228° |
| 2026-04-18 20:25 | 45.79665 | -73.84441 | 3018 ft | 132 kts | 230° |
| 2026-04-18 20:25 | 45.78980 | -73.85307 | 2885 ft | 131 kts | 231° |
| 2026-04-18 20:26 | 45.78315 | -73.86178 | 2707 ft | 130 kts | 232° |
| 2026-04-18 20:26 | 45.77652 | -73.87077 | 2558 ft | 129 kts | 232° |
| 2026-04-18 20:26 | 45.77005 | -73.87970 | 2414 ft | 130 kts | 232° |
| 2026-04-18 20:26 | 45.76366 | -73.88864 | 2260 ft | 130 kts | 232° |
| 2026-04-18 20:27 | 45.75718 | -73.89775 | 2068 ft | 130 kts | 232° |
| 2026-04-18 20:27 | 45.75070 | -73.90692 | 1877 ft | 131 kts | 232° |
| 2026-04-18 20:27 | 45.74424 | -73.91612 | 1699 ft | 132 kts | 232° |
| 2026-04-18 20:27 | 45.73775 | -73.92563 | 1508 ft | 135 kts | 229° |
| 2026-04-18 20:28 | 45.73105 | -73.93520 | 1335 ft | 138 kts | 228° |
| 2026-04-18 20:28 | 45.72418 | -73.94490 | 1156 ft | 138 kts | 228° |
| 2026-04-18 20:28 | 45.71740 | -73.95461 | 955 ft | 137 kts | 227° |
| 2026-04-18 20:28 | 45.71065 | -73.96425 | 784 ft | 137 kts | 227° |
| 2026-04-18 20:29 | 45.70395 | -73.97391 | 597 ft | 136 kts | 226° |
| 2026-04-18 20:29 | 45.69874 | -73.98134 | 462 ft | 136 kts | 226° |
| 2026-04-18 20:29 | 45.69202 | -73.99087 | 301 ft | 135 kts | 226° |
| 2026-04-18 20:29 | 45.68616 | -73.99928 | 284 ft | 90 kts | 225° |
| 2026-04-18 20:30 | 45.68350 | -74.00307 | 284 ft | 20 kts | 230° |
| 2026-04-18 20:30 | 45.68245 | -74.00461 | 284 ft | 24 kts | 226° |
| 2026-04-18 20:30 | 45.68138 | -74.00654 | 284 ft | 24 kts | 252° |
| 2026-04-18 20:30 | 45.68113 | -74.00871 | 284 ft | 11 kts | 264° |
| 2026-04-18 20:31 | 45.68112 | -74.00900 | 284 ft | 0 kts | 266° |
| 2026-04-18 20:31 | 45.68112 | -74.00904 | 284 ft | 2 kts | 265° |
| 2026-04-18 20:31 | 45.68106 | -74.00977 | 284 ft | 12 kts | 263° |
| 2026-04-18 20:32 | 45.68094 | -74.01110 | 284 ft | 15 kts | 262° |
| 2026-04-18 20:32 | 45.68081 | -74.01251 | 284 ft | 13 kts | 267° |
| 2026-04-18 20:32 | 45.68100 | -74.01373 | 284 ft | 12 kts | 297° |
| 2026-04-18 20:32 | 45.68152 | -74.01466 | 284 ft | 12 kts | 313° |
| 2026-04-18 20:33 | 45.68209 | -74.01547 | 284 ft | 11 kts | 314° |
| 2026-04-18 20:33 | 45.68220 | -74.01598 | 284 ft | 5 kts | 269° |
| 2026-04-18 20:33 | 45.68189 | -74.01689 | 284 ft | 16 kts | 230° |
| 2026-04-18 20:33 | 45.68094 | -74.01831 | 284 ft | 21 kts | 226° |
| 2026-04-18 20:34 | 45.68001 | -74.01967 | 284 ft | 17 kts | 225° |
| 2026-04-18 20:34 | 45.67922 | -74.02081 | 284 ft | 15 kts | 226° |
| 2026-04-18 20:34 | 45.67853 | -74.02187 | 284 ft | 14 kts | 227° |
| 2026-04-18 20:34 | 45.67782 | -74.02293 | 284 ft | 16 kts | 226° |
| 2026-04-18 20:35 | 45.67704 | -74.02413 | 284 ft | 16 kts | 228° |
| 2026-04-18 20:35 | 45.67630 | -74.02532 | 284 ft | 15 kts | 229° |
| 2026-04-18 20:35 | 45.67562 | -74.02643 | 284 ft | 14 kts | 228° |
| 2026-04-18 20:35 | 45.67513 | -74.02758 | 284 ft | 13 kts | 246° |
| 2026-04-18 20:36 | 45.67481 | -74.02874 | 284 ft | 12 kts | 249° |
| 2026-04-18 20:36 | 45.67449 | -74.02995 | 284 ft | 14 kts | 249° |
| 2026-04-18 20:36 | 45.67409 | -74.03137 | 284 ft | 15 kts | 249° |
| 2026-04-18 20:36 | 45.67372 | -74.03277 | 284 ft | 15 kts | 249° |
| 2026-04-18 20:37 | 45.67338 | -74.03409 | 284 ft | 14 kts | 250° |
| 2026-04-18 20:37 | 45.67303 | -74.03541 | 284 ft | 15 kts | 249° |
| 2026-04-18 20:37 | 45.67262 | -74.03692 | 284 ft | 17 kts | 249° |
| 2026-04-18 20:37 | 45.67220 | -74.03845 | 284 ft | 16 kts | 249° |
| 2026-04-18 20:38 | 45.67183 | -74.03987 | 284 ft | 15 kts | 250° |
| 2026-04-18 20:38 | 45.67150 | -74.04121 | 284 ft | 14 kts | 251° |
| 2026-04-18 20:38 | 45.67128 | -74.04251 | 284 ft | 13 kts | 265° |
| 2026-04-18 20:38 | 45.67133 | -74.04372 | 284 ft | 12 kts | 276° |
| 2026-04-18 20:39 | 45.67142 | -74.04490 | 284 ft | 12 kts | 276° |
| 2026-04-18 20:39 | 45.67151 | -74.04616 | 284 ft | 13 kts | 278° |
| 2026-04-18 20:39 | 45.67190 | -74.04683 | 284 ft | 8 kts | 337° |
| 2026-04-18 20:39 | 45.67260 | -74.04694 | 284 ft | 13 kts | 2° |
| 2026-04-18 20:40 | 45.67365 | -74.04676 | 284 ft | 18 kts | 7° |
| 2026-04-18 20:40 | 45.67497 | -74.04657 | 284 ft | 19 kts | 4° |
| 2026-04-18 20:40 | 45.67627 | -74.04640 | 284 ft | 18 kts | 9° |
| 2026-04-18 20:40 | 45.67722 | -74.04649 | 284 ft | 7 kts | 315° |
| 2026-04-18 20:41 | 45.67734 | -74.04688 | 284 ft | 4 kts | 285° |
| 2026-04-18 20:41 | 45.67741 | -74.04744 | 284 ft | 6 kts | 277° |
| 2026-04-18 20:41 | 45.67742 | -74.04761 | 284 ft | 0 kts | 278° |